Crossville, Tennessee
Current Conditions -  °F | °C
As of 3:53 AM on Saturday 20 Dec 2014 (Local Time) from KCSV Reporting Station
Overcast Overcast  
Wind Chill: 30°   Ceiling: 5000
Heat Index: 34°   Visibility: 7mi
Dew Point: 28°   Wind: 5mph
Humidity: 79%   Direction: 340°NNW
Pressure: 30.15"   Gusts: NA
Location:  35.95°N, 85.03°W
Report Text: KCSV 200953Z AUTO 34004KT 7SM OVC050 01/M02 A3015 RMK AO2 UPB05E14 SLP218 P0000 T00111022
Loading
Personal Weather Stations






























Interactive Weather Map New forecast layout! Learn more

10-Day Weather Forecast

Advertisements
Track Severe Weather on mobile